createdAt,value
2019-03-30T00:01:24.522Z,2.13
2019-03-30T00:03:53.854Z,2.37
2019-03-30T00:06:23.145Z,1.70
2019-03-30T00:08:52.434Z,1.80
2019-03-30T00:11:21.809Z,1.87
2019-03-30T00:13:51.078Z,2.30
2019-03-30T00:16:20.384Z,1.90
2019-03-30T00:18:49.692Z,2.70
2019-03-30T00:21:19.044Z,2.53
2019-03-30T00:23:48.333Z,2.43
2019-03-30T00:26:17.608Z,2.47
2019-03-30T00:28:47.227Z,2.77
2019-03-30T00:31:15.868Z,2.77
2019-03-30T00:33:45.162Z,2.17
2019-03-30T00:36:14.012Z,1.97
2019-03-30T00:38:43.320Z,2.10
2019-03-30T00:41:11.965Z,2.00
2019-03-30T00:43:41.255Z,1.73
2019-03-30T00:46:09.825Z,2.30
2019-03-30T00:48:39.127Z,2.20
2019-03-30T00:51:08.661Z,2.07
2019-03-30T00:53:37.957Z,2.00
2019-03-30T00:56:07.481Z,2.33
2019-03-30T00:58:36.779Z,2.33
2019-03-30T01:01:06.055Z,2.30
2019-03-30T01:03:35.337Z,1.90
2019-03-30T01:06:04.629Z,2.43
2019-03-30T01:08:33.917Z,2.33
2019-03-30T01:11:03.205Z,2.55
2019-03-30T01:13:31.901Z,2.10
2019-03-30T01:16:01.311Z,1.80
2019-03-30T01:18:29.910Z,2.25
2019-03-30T01:20:59.189Z,2.97
2019-03-30T01:23:28.573Z,2.10
2019-03-30T01:25:57.861Z,3.30
2019-03-30T01:28:27.594Z,2.72
2019-03-30T01:30:56.881Z,2.10
2019-03-30T01:33:26.170Z,2.80
2019-03-30T01:35:55.690Z,3.07
2019-03-30T01:38:24.981Z,2.40
2019-03-30T01:40:53.548Z,2.13
2019-03-30T01:43:22.837Z,2.30
2019-03-30T01:45:52.189Z,2.40
2019-03-30T01:48:21.628Z,2.40
2019-03-30T01:50:50.913Z,2.50
2019-03-30T01:53:20.282Z,3.22
2019-03-30T01:55:49.566Z,2.77
2019-03-30T01:58:18.877Z,2.83
2019-03-30T02:00:48.237Z,2.80
2019-03-30T02:03:17.622Z,1.95
2019-03-30T02:05:46.538Z,2.63
2019-03-30T02:08:15.845Z,2.60
2019-03-30T02:10:44.772Z,2.77
2019-03-30T02:13:14.153Z,3.02
2019-03-30T02:15:43.452Z,2.73
2019-03-30T02:18:13.078Z,8.43
2019-03-30T02:20:43.977Z,3.98
2019-03-30T02:23:13.422Z,6.47
2019-03-30T02:25:42.831Z,6.83
2019-03-30T02:28:12.287Z,2.72
2019-03-30T02:30:41.671Z,2.83
2019-03-30T02:33:11.059Z,5.65
2019-03-30T02:35:39.645Z,2.65
2019-03-30T02:38:09.253Z,3.17
2019-03-30T02:40:37.826Z,3.10
2019-03-30T02:43:07.106Z,2.77
2019-03-30T02:45:36.826Z,4.35
2019-03-30T02:48:05.395Z,2.58
2019-03-30T02:50:48.583Z,2.25
2019-03-30T02:53:05.138Z,2.98
2019-03-30T02:55:34.427Z,2.60
2019-03-30T02:58:03.764Z,2.95
2019-03-30T03:00:33.252Z,3.02
2019-03-30T03:03:02.609Z,2.70
2019-03-30T03:05:31.927Z,2.60
2019-03-30T03:08:01.204Z,3.05
2019-03-30T03:10:30.658Z,2.90
2019-03-30T03:12:59.951Z,2.52
2019-03-30T03:15:29.254Z,3.12
2019-03-30T03:17:57.826Z,2.37
2019-03-30T03:20:27.133Z,2.33
2019-03-30T03:22:56.516Z,2.67
2019-03-30T03:25:25.918Z,2.85
2019-03-30T03:27:55.492Z,2.95
2019-03-30T03:30:24.811Z,2.80
2019-03-30T03:32:54.095Z,2.95
2019-03-30T03:35:22.675Z,2.75
2019-03-30T03:37:51.996Z,2.87
2019-03-30T03:40:21.297Z,3.22
2019-03-30T03:42:49.872Z,2.47
2019-03-30T03:45:19.177Z,3.00
2019-03-30T03:47:48.559Z,3.45
2019-03-30T03:50:58.038Z,3.30
2019-03-30T03:53:27.461Z,2.65
2019-03-30T03:55:58.521Z,3.00
2019-03-30T03:58:31.617Z,2.42
2019-03-30T04:01:01.296Z,4.00
2019-03-30T04:03:33.015Z,2.33
2019-03-30T04:06:04.620Z,3.67
2019-03-30T04:08:34.153Z,3.65
2019-03-30T04:11:04.817Z,3.10
2019-03-30T04:13:34.247Z,3.00
2019-03-30T04:16:03.626Z,3.00
2019-03-30T04:18:32.915Z,3.70
2019-03-30T04:21:02.216Z,3.90
2019-03-30T04:23:31.580Z,2.75
2019-03-30T04:26:00.154Z,3.47
2019-03-30T04:28:29.457Z,3.47
2019-03-30T04:30:58.816Z,3.05
2019-03-30T04:33:28.125Z,4.00
2019-03-30T04:35:57.429Z,3.50
2019-03-30T04:38:26.723Z,3.37
2019-03-30T04:40:56.021Z,4.65
2019-03-30T04:43:25.299Z,3.35
2019-03-30T04:45:54.121Z,5.17
2019-03-30T04:48:23.415Z,3.67
2019-03-30T04:50:52.004Z,3.00
2019-03-30T04:53:21.297Z,4.42
2019-03-30T04:55:50.581Z,4.50
2019-03-30T04:58:19.881Z,3.17
2019-03-30T05:00:49.163Z,3.72
2019-03-30T05:03:18.458Z,3.60
2019-03-30T05:05:47.738Z,3.52
2019-03-30T05:08:17.114Z,4.35
2019-03-30T05:10:45.925Z,3.98
2019-03-30T05:13:15.202Z,3.77
2019-03-30T05:15:44.288Z,4.65
2019-03-30T05:18:13.738Z,3.58
2019-03-30T05:20:43.025Z,3.77
2019-03-30T05:23:12.322Z,3.40
2019-03-30T05:25:41.609Z,4.62
2019-03-30T05:28:10.905Z,4.17
2019-03-30T05:30:40.210Z,4.28
2019-03-30T05:33:09.765Z,6.33
2019-03-30T05:35:39.057Z,5.70
2019-03-30T05:38:07.901Z,5.62
2019-03-30T05:40:37.195Z,6.25
2019-03-30T05:43:06.505Z,4.75
2019-03-30T05:45:35.877Z,7.03
2019-03-30T05:48:04.544Z,5.75
2019-03-30T05:50:33.825Z,6.53
2019-03-30T05:53:03.140Z,3.40
2019-03-30T05:55:32.425Z,3.12
2019-03-30T05:58:01.725Z,4.03
2019-03-30T06:00:31.082Z,3.87
2019-03-30T06:03:00.373Z,3.75
2019-03-30T06:05:29.173Z,4.10
2019-03-30T06:07:57.748Z,5.28
2019-03-30T06:10:27.030Z,6.85
2019-03-30T06:12:56.417Z,4.55
2019-03-30T06:15:26.214Z,4.70
2019-03-30T06:17:56.605Z,4.58
2019-03-30T06:20:25.900Z,3.75
2019-03-30T06:22:55.226Z,3.77
2019-03-30T06:25:24.779Z,3.47
2019-03-30T06:27:54.177Z,4.20
2019-03-30T06:30:26.985Z,3.87
2019-03-30T06:32:56.686Z,4.37
2019-03-30T06:35:26.254Z,4.05
2019-03-30T06:37:55.568Z,4.50
2019-03-30T06:40:24.868Z,4.43
2019-03-30T06:42:54.197Z,4.70
2019-03-30T06:45:23.500Z,3.93
2019-03-30T06:47:52.608Z,4.17
2019-03-30T06:50:22.241Z,4.10
2019-03-30T06:52:58.125Z,3.93
2019-03-30T06:55:22.589Z,4.17
2019-03-30T06:57:51.890Z,4.57
2019-03-30T07:00:31.721Z,5.60
2019-03-30T07:03:03.142Z,4.20
2019-03-30T07:05:34.750Z,4.83
2019-03-30T07:08:05.189Z,3.70
2019-03-30T07:10:34.329Z,4.23
2019-03-30T07:13:04.517Z,4.50
2019-03-30T07:15:35.737Z,4.40
2019-03-30T07:18:05.173Z,3.50
2019-03-30T07:20:34.656Z,4.33
2019-03-30T07:23:11.676Z,4.73
2019-03-30T07:25:35.021Z,4.20
2019-03-30T07:28:04.315Z,3.97
2019-03-30T07:30:33.729Z,3.93
2019-03-30T07:33:03.013Z,4.30
2019-03-30T07:35:31.597Z,4.03
2019-03-30T07:38:00.874Z,4.67
2019-03-30T07:40:32.504Z,4.07
2019-03-30T07:43:00.631Z,3.97
2019-03-30T07:45:29.937Z,3.73
2019-03-30T07:47:59.309Z,5.10
2019-03-30T07:50:28.602Z,4.70
2019-03-30T07:52:57.909Z,4.37
2019-03-30T07:55:27.205Z,5.40
2019-03-30T07:57:56.776Z,4.93
2019-03-30T08:00:30.665Z,4.53
2019-03-30T08:02:57.250Z,4.73
2019-03-30T08:05:25.898Z,4.17
2019-03-30T08:07:55.474Z,4.03
2019-03-30T08:10:25.189Z,4.53
2019-03-30T08:12:54.482Z,4.70
2019-03-30T08:15:25.329Z,4.53
2019-03-30T08:17:54.678Z,4.40
2019-03-30T08:20:23.954Z,4.00
2019-03-30T08:22:53.285Z,5.10
2019-03-30T08:25:22.904Z,4.67
2019-03-30T08:27:52.164Z,5.40
2019-03-30T08:30:21.595Z,5.30
2019-03-30T08:32:50.955Z,5.30
2019-03-30T08:35:19.601Z,5.50
2019-03-30T08:37:49.218Z,4.97
2019-03-30T08:40:18.538Z,4.87
2019-03-30T08:42:58.224Z,5.20
2019-03-30T08:45:27.330Z,6.00
2019-03-30T08:47:56.617Z,6.00
2019-03-30T08:50:26.251Z,6.70
2019-03-30T08:52:56.553Z,5.70
2019-03-30T08:55:25.905Z,5.77
2019-03-30T08:57:55.792Z,5.23
2019-03-30T09:00:39.117Z,5.53
2019-03-30T09:03:08.721Z,4.83
2019-03-30T09:05:38.261Z,5.10
2019-03-30T09:08:07.649Z,4.90
2019-03-30T09:10:36.383Z,4.97
2019-03-30T09:13:07.659Z,4.47
2019-03-30T09:15:36.333Z,4.03
2019-03-30T09:18:06.127Z,4.27
2019-03-30T09:20:35.939Z,4.60
2019-03-30T09:23:05.409Z,4.40
2019-03-30T09:25:34.701Z,3.90
2019-03-30T09:28:04.097Z,4.30
2019-03-30T09:30:33.462Z,4.63
2019-03-30T09:33:04.606Z,4.67
2019-03-30T09:35:33.902Z,3.90
2019-03-30T09:38:03.299Z,4.70
2019-03-30T09:40:32.659Z,4.20
2019-03-30T09:43:02.085Z,3.37
2019-03-30T09:45:31.637Z,4.57
2019-03-30T09:48:00.921Z,4.23
2019-03-30T09:50:30.290Z,4.17
2019-03-30T09:52:59.662Z,4.00
2019-03-30T09:55:28.945Z,4.10
2019-03-30T09:57:58.254Z,3.47
2019-03-30T10:00:27.573Z,4.30
2019-03-30T10:02:56.910Z,3.77
2019-03-30T10:05:26.374Z,4.03
2019-03-30T10:07:55.969Z,4.47
2019-03-30T10:10:25.318Z,4.27
2019-03-30T10:12:54.965Z,4.30
2019-03-30T10:15:24.322Z,3.80
2019-03-30T10:17:53.707Z,3.87
2019-03-30T10:20:23.405Z,3.50
2019-03-30T10:22:52.718Z,4.03
2019-03-30T10:25:22.439Z,3.23
2019-03-30T10:27:51.755Z,2.97
2019-03-30T10:30:21.156Z,3.17
2019-03-30T10:32:49.727Z,2.80
2019-03-30T10:35:19.022Z,3.37
2019-03-30T10:37:47.597Z,3.17
2019-03-30T10:40:16.973Z,3.40
2019-03-30T10:42:46.302Z,2.17
2019-03-30T10:45:15.937Z,2.90
2019-03-30T10:47:44.556Z,2.70
2019-03-30T10:50:14.009Z,2.50
2019-03-30T10:52:43.315Z,2.87
2019-03-30T10:55:13.154Z,2.90
2019-03-30T10:57:42.447Z,2.60
2019-03-30T11:00:12.381Z,2.00
2019-03-30T11:02:41.719Z,2.57
2019-03-30T11:05:11.084Z,2.67
2019-03-30T11:07:40.459Z,1.87
2019-03-30T11:10:10.502Z,2.43
2019-03-30T11:12:39.793Z,2.60
2019-03-30T11:15:08.362Z,2.53
2019-03-30T11:17:36.957Z,2.70
2019-03-30T11:20:06.409Z,3.03
2019-03-30T11:22:35.732Z,2.40
2019-03-30T11:25:08.684Z,2.40
2019-03-30T11:27:36.762Z,2.70
2019-03-30T11:30:06.789Z,2.50
2019-03-30T11:32:36.090Z,2.70
2019-03-30T11:35:05.562Z,2.67
2019-03-30T11:37:34.853Z,2.73
2019-03-30T11:40:04.337Z,2.97
2019-03-30T11:42:33.909Z,2.50
2019-03-30T11:45:02.563Z,2.33
2019-03-30T11:47:31.870Z,2.93
2019-03-30T11:50:01.165Z,2.37
2019-03-30T11:52:30.537Z,2.30
2019-03-30T11:54:59.836Z,2.47
2019-03-30T11:57:29.137Z,3.03
2019-03-30T11:59:58.428Z,2.83
2019-03-30T12:02:28.465Z,2.70
2019-03-30T12:04:57.925Z,2.47
2019-03-30T12:07:27.229Z,2.60
2019-03-30T12:09:56.687Z,2.63
2019-03-30T12:12:25.981Z,2.37
2019-03-30T12:14:55.343Z,3.00
2019-03-30T12:17:24.625Z,2.50
2019-03-30T12:19:54.165Z,2.63
2019-03-30T12:22:23.444Z,2.43
2019-03-30T12:24:52.743Z,2.40
2019-03-30T12:27:22.030Z,2.50
2019-03-30T12:29:51.321Z,2.43
2019-03-30T12:32:20.597Z,2.23
2019-03-30T12:34:50.104Z,2.70
2019-03-30T12:37:19.456Z,2.00
2019-03-30T12:39:48.373Z,1.93
2019-03-30T12:42:17.661Z,2.37
2019-03-30T12:44:46.341Z,2.90
2019-03-30T12:47:15.631Z,2.60
2019-03-30T12:49:45.334Z,2.60
2019-03-30T12:52:14.174Z,2.07
2019-03-30T12:54:42.739Z,2.60
2019-03-30T12:57:12.030Z,2.60
2019-03-30T12:59:41.317Z,2.27
2019-03-30T13:02:10.596Z,2.40
2019-03-30T13:04:39.873Z,2.53
2019-03-30T13:07:09.157Z,2.30
2019-03-30T13:09:38.458Z,2.57
2019-03-30T13:12:07.745Z,2.70
2019-03-30T13:14:37.034Z,3.27
2019-03-30T13:17:06.311Z,2.70
2019-03-30T13:19:35.587Z,3.80
2019-03-30T13:22:04.933Z,3.03
2019-03-30T13:24:34.425Z,2.83
2019-03-30T13:27:03.778Z,2.90
2019-03-30T13:29:33.105Z,2.97
2019-03-30T13:32:02.397Z,2.77
2019-03-30T13:34:31.677Z,2.70
2019-03-30T13:37:02.782Z,2.57
2019-03-30T13:39:32.065Z,2.97
2019-03-30T13:42:01.404Z,2.50
2019-03-30T13:44:29.965Z,2.37
2019-03-30T13:46:59.250Z,2.60
2019-03-30T13:49:29.640Z,2.13
2019-03-30T13:51:58.848Z,2.07
2019-03-30T13:54:27.401Z,2.20
2019-03-30T13:56:56.709Z,2.23
2019-03-30T13:59:25.985Z,2.00
2019-03-30T14:01:55.286Z,2.33
2019-03-30T14:04:23.869Z,2.07
2019-03-30T14:06:53.193Z,2.37
2019-03-30T14:09:23.784Z,2.07
2019-03-30T14:11:53.152Z,1.97
2019-03-30T14:14:22.429Z,1.97
2019-03-30T14:16:51.797Z,1.80
2019-03-30T14:19:20.360Z,1.70
2019-03-30T14:21:49.657Z,1.77
2019-03-30T14:24:18.954Z,1.50
2019-03-30T14:26:48.244Z,2.00
2019-03-30T14:29:17.775Z,2.00
2019-03-30T14:31:47.089Z,2.70
2019-03-30T14:34:16.369Z,2.40
2019-03-30T14:36:45.665Z,2.20
2019-03-30T14:39:14.987Z,2.90
2019-03-30T14:41:44.277Z,2.90
2019-03-30T14:44:13.801Z,3.20
2019-03-30T14:46:43.098Z,2.50
2019-03-30T14:49:12.374Z,1.90
2019-03-30T14:51:41.685Z,2.60
2019-03-30T14:54:10.954Z,3.03
2019-03-30T14:56:45.700Z,2.53
2019-03-30T14:59:11.194Z,2.57
2019-03-30T15:01:41.882Z,1.80
2019-03-30T15:04:11.361Z,2.17
2019-03-30T15:06:39.988Z,2.30
2019-03-30T15:09:09.429Z,2.03
2019-03-30T15:11:38.181Z,2.67
2019-03-30T15:14:07.481Z,2.20
2019-03-30T15:16:36.782Z,2.50
2019-03-30T15:19:06.187Z,2.17
2019-03-30T15:21:35.597Z,2.83
2019-03-30T15:24:04.938Z,2.60
2019-03-30T15:26:34.241Z,2.20
2019-03-30T15:29:03.617Z,3.13
2019-03-30T15:31:32.885Z,3.30
2019-03-30T15:34:02.370Z,5.77
2019-03-30T15:36:31.653Z,3.83
2019-03-30T15:39:00.953Z,4.20
2019-03-30T15:41:30.237Z,4.43
2019-03-30T15:43:59.531Z,4.20
2019-03-30T15:46:28.085Z,3.53
2019-03-30T15:48:57.394Z,3.70
2019-03-30T15:51:26.665Z,4.93
2019-03-30T15:53:56.041Z,4.57
2019-03-30T15:56:26.497Z,4.87
2019-03-30T15:58:56.114Z,5.20
2019-03-30T16:01:24.689Z,3.57
2019-03-30T16:03:54.069Z,3.83
2019-03-30T16:06:23.348Z,2.77
2019-03-30T16:08:52.641Z,3.33
2019-03-30T16:11:22.165Z,2.93
2019-03-30T16:13:51.953Z,4.20
2019-03-30T16:16:21.233Z,3.30
2019-03-30T16:18:50.585Z,3.67
2019-03-30T16:21:19.889Z,4.03
2019-03-30T16:23:49.174Z,3.70
2019-03-30T16:26:18.611Z,4.27
2019-03-30T16:28:47.970Z,3.87
2019-03-30T16:31:17.585Z,4.30
2019-03-30T16:33:47.148Z,4.00
2019-03-30T16:36:15.711Z,4.60
2019-03-30T16:38:44.985Z,4.07
2019-03-30T16:41:13.564Z,4.57
2019-03-30T16:43:42.853Z,5.10
2019-03-30T16:46:12.213Z,5.10
2019-03-30T16:48:40.853Z,4.10
2019-03-30T16:51:10.237Z,4.87
2019-03-30T16:53:39.527Z,4.13
2019-03-30T16:56:08.809Z,4.77
2019-03-30T16:58:38.157Z,4.87
2019-03-30T17:01:07.454Z,8.00
2019-03-30T17:03:37.161Z,6.33
2019-03-30T17:06:05.749Z,5.20
2019-03-30T17:08:35.029Z,7.03
2019-03-30T17:11:03.596Z,6.77
2019-03-30T17:13:32.879Z,5.70
2019-03-30T17:16:02.493Z,5.80
2019-03-30T17:18:31.764Z,5.03
2019-03-30T17:21:01.069Z,5.10
2019-03-30T17:23:30.355Z,5.40
2019-03-30T17:25:59.644Z,5.07
2019-03-30T17:28:28.918Z,5.73
2019-03-30T17:30:58.197Z,5.70
2019-03-30T17:33:27.487Z,5.40
2019-03-30T17:35:56.064Z,6.37
2019-03-30T17:38:25.584Z,5.67
2019-03-30T17:40:54.945Z,5.47
2019-03-30T17:43:24.233Z,5.57
2019-03-30T17:45:53.533Z,3.70
2019-03-30T17:48:22.093Z,3.37
2019-03-30T17:50:51.385Z,3.90
2019-03-30T17:53:20.825Z,3.93
2019-03-30T17:55:50.133Z,4.43
2019-03-30T17:58:19.428Z,3.67
2019-03-30T18:00:48.811Z,3.00
2019-03-30T18:03:18.094Z,3.17
2019-03-30T18:05:47.629Z,3.13
2019-03-30T18:08:16.923Z,3.43
2019-03-30T18:10:46.199Z,2.60
2019-03-30T18:13:15.473Z,3.47
2019-03-30T18:15:45.021Z,2.80
2019-03-30T18:18:14.560Z,3.50
2019-03-30T18:20:44.021Z,3.87
2019-03-30T18:23:13.301Z,3.43
2019-03-30T18:25:42.693Z,3.53
2019-03-30T18:28:26.174Z,3.67
2019-03-30T18:30:43.186Z,3.67
2019-03-30T18:33:12.925Z,3.60
2019-03-30T18:35:42.312Z,3.93
2019-03-30T18:38:13.119Z,4.00
2019-03-30T18:40:42.641Z,3.70
2019-03-30T18:43:12.106Z,4.47
2019-03-30T18:45:41.408Z,3.43
2019-03-30T18:48:14.942Z,3.70
2019-03-30T18:50:45.088Z,3.80
2019-03-30T18:53:14.861Z,4.30
2019-03-30T18:55:44.476Z,4.13
2019-03-30T18:58:14.286Z,4.63
2019-03-30T19:00:43.923Z,3.60
2019-03-30T19:03:13.301Z,3.80
2019-03-30T19:05:42.590Z,4.07
2019-03-30T19:08:11.937Z,3.97
2019-03-30T19:10:41.409Z,4.13
2019-03-30T19:13:10.082Z,3.87
2019-03-30T19:15:39.376Z,3.67
2019-03-30T19:18:08.698Z,3.80
2019-03-30T19:20:38.166Z,5.80
2019-03-30T19:23:07.472Z,5.37
2019-03-30T19:25:36.835Z,4.77
2019-03-30T19:28:06.213Z,4.23
2019-03-30T19:30:34.792Z,4.57
2019-03-30T19:33:04.169Z,5.50
2019-03-30T19:35:33.479Z,4.93
2019-03-30T19:38:04.070Z,4.50
2019-03-30T19:40:33.624Z,5.33
2019-03-30T19:43:03.246Z,6.13
2019-03-30T19:45:32.559Z,6.53
2019-03-30T19:48:01.853Z,5.33
2019-03-30T19:50:30.701Z,5.87
2019-03-30T19:53:00.074Z,5.10
2019-03-30T19:55:29.397Z,5.33
2019-03-30T19:57:58.693Z,5.47
2019-03-30T20:00:28.069Z,5.43
2019-03-30T20:02:57.662Z,5.30
2019-03-30T20:05:26.968Z,5.30
2019-03-30T20:07:56.263Z,6.00
2019-03-30T20:10:25.789Z,5.80
2019-03-30T20:12:55.080Z,6.23
2019-03-30T20:15:24.665Z,5.07
2019-03-30T20:17:54.027Z,5.57
2019-03-30T20:20:22.689Z,6.33
2019-03-30T20:22:52.286Z,6.83
2019-03-30T20:25:21.649Z,5.90
2019-03-30T20:27:50.958Z,6.30
2019-03-30T20:30:20.519Z,6.00
2019-03-30T20:32:49.848Z,5.93
2019-03-30T20:35:19.230Z,5.13
2019-03-30T20:37:47.810Z,5.63
2019-03-30T20:40:17.181Z,5.67
2019-03-30T20:42:45.802Z,5.93
2019-03-30T20:45:16.273Z,5.90
2019-03-30T20:47:45.633Z,5.30
2019-03-30T20:50:14.539Z,5.60
2019-03-30T20:52:43.998Z,4.67
2019-03-30T20:55:13.543Z,5.77
2019-03-30T20:57:42.841Z,6.83
2019-03-30T21:00:12.873Z,5.57
2019-03-30T21:02:42.520Z,6.50
2019-03-30T21:05:12.906Z,7.47
2019-03-30T21:07:41.904Z,5.50
2019-03-30T21:10:10.834Z,5.00
2019-03-30T21:12:40.147Z,5.37
2019-03-30T21:15:09.607Z,5.03
2019-03-30T21:17:38.188Z,5.07
2019-03-30T21:20:08.020Z,5.57
2019-03-30T21:22:37.340Z,5.37
2019-03-30T21:25:07.136Z,5.77
2019-03-30T21:27:36.514Z,5.67
2019-03-30T21:30:08.445Z,6.40
2019-03-30T21:32:37.819Z,6.97
2019-03-30T21:35:06.638Z,6.63
2019-03-30T21:37:35.925Z,6.67
2019-03-30T21:40:05.765Z,5.93
2019-03-30T21:42:34.353Z,6.13
2019-03-30T21:45:03.925Z,5.77
2019-03-30T21:47:33.214Z,5.60
2019-03-30T21:50:01.890Z,5.97
2019-03-30T21:52:31.193Z,5.67
2019-03-30T21:55:00.547Z,4.80
2019-03-30T21:57:30.153Z,5.43
2019-03-30T22:00:09.723Z,5.10
2019-03-30T22:02:30.477Z,6.23
2019-03-30T22:05:00.084Z,5.33
2019-03-30T22:07:29.778Z,5.77
2019-03-30T22:09:59.486Z,6.77
2019-03-30T22:12:28.145Z,5.83
2019-03-30T22:14:57.933Z,7.37
2019-03-30T22:17:26.605Z,5.50
2019-03-30T22:19:55.969Z,4.67
2019-03-30T22:22:25.261Z,6.70
2019-03-30T22:24:53.829Z,5.73
2019-03-30T22:27:23.168Z,5.30
2019-03-30T22:29:52.464Z,5.17
2019-03-30T22:32:21.746Z,7.53
2019-03-30T22:34:51.074Z,8.80
2019-03-30T22:37:19.722Z,8.57
2019-03-30T22:39:49.086Z,7.03
2019-03-30T22:42:17.677Z,6.43
2019-03-30T22:44:46.247Z,5.20
2019-03-30T22:47:15.585Z,5.97
2019-03-30T22:49:44.906Z,6.40
2019-03-30T22:52:14.213Z,7.20
2019-03-30T22:54:43.505Z,5.53
2019-03-30T22:57:12.893Z,5.97
2019-03-30T22:59:42.454Z,6.60
2019-03-30T23:02:11.924Z,7.90
2019-03-30T23:04:41.241Z,6.80
2019-03-30T23:07:10.788Z,5.53
2019-03-30T23:09:40.152Z,6.17
2019-03-30T23:12:09.683Z,5.00
2019-03-30T23:14:39.010Z,6.03
2019-03-30T23:17:07.597Z,5.30
2019-03-30T23:19:36.928Z,5.50
2019-03-30T23:22:06.219Z,6.73
2019-03-30T23:24:35.525Z,6.10
2019-03-30T23:27:04.901Z,6.10
2019-03-30T23:29:34.257Z,7.17
2019-03-30T23:32:03.870Z,7.67
2019-03-30T23:34:36.330Z,6.03
2019-03-30T23:37:05.633Z,6.80
2019-03-30T23:39:34.941Z,5.90
2019-03-30T23:42:06.383Z,6.87
2019-03-30T23:44:35.690Z,5.33
2019-03-30T23:47:05.104Z,6.13
2019-03-30T23:49:34.412Z,6.00
2019-03-30T23:52:03.784Z,6.20
2019-03-30T23:54:33.173Z,6.07
2019-03-30T23:57:02.489Z,5.97
2019-03-30T23:59:31.841Z,6.00
